createdAt,value
2018-03-11T00:01:49.805Z,22.27
2018-03-11T00:04:17.323Z,20.57
2018-03-11T00:06:45.714Z,18.63
2018-03-11T00:09:13.241Z,18.80
2018-03-11T00:11:40.755Z,18.83
2018-03-11T00:14:09.117Z,18.63
2018-03-11T00:16:36.663Z,17.13
2018-03-11T00:19:04.187Z,19.83
2018-03-11T00:21:31.824Z,19.17
2018-03-11T00:24:00.237Z,20.17
2018-03-11T00:26:27.767Z,18.17
2018-03-11T00:28:56.094Z,19.53
2018-03-11T00:31:23.618Z,18.73
2018-03-11T00:33:51.142Z,21.10
2018-03-11T00:36:18.664Z,19.23
2018-03-11T00:38:46.964Z,19.10
2018-03-11T00:41:14.466Z,20.50
2018-03-11T00:43:41.999Z,19.57
2018-03-11T00:46:09.587Z,18.20
2018-03-11T00:48:37.107Z,18.60
2018-03-11T00:51:05.384Z,19.63
2018-03-11T00:53:33.684Z,18.57
2018-03-11T00:56:01.219Z,18.50
2018-03-11T00:58:29.500Z,18.80
2018-03-11T01:00:57.811Z,17.60
2018-03-11T01:03:25.334Z,18.20
2018-03-11T01:05:52.851Z,18.07
2018-03-11T01:08:20.618Z,18.93
2018-03-11T01:10:48.184Z,17.90
2018-03-11T01:13:15.725Z,18.27
2018-03-11T01:15:44.015Z,18.40
2018-03-11T01:18:11.538Z,17.37
2018-03-11T01:20:39.086Z,17.90
2018-03-11T01:23:06.704Z,17.97
2018-03-11T01:25:34.280Z,18.43
2018-03-11T01:28:01.795Z,19.43
2018-03-11T01:30:29.336Z,19.40
2018-03-11T01:32:56.871Z,20.23
2018-03-11T01:35:24.382Z,19.40
2018-03-11T01:37:51.911Z,20.10
2018-03-11T01:40:19.463Z,19.00
2018-03-11T01:42:46.991Z,19.03
2018-03-11T01:45:15.315Z,19.93
2018-03-11T01:47:42.919Z,19.40
2018-03-11T01:50:10.443Z,19.53
2018-03-11T01:52:50.710Z,20.57
2018-03-11T01:55:18.331Z,17.77
2018-03-11T01:57:46.625Z,20.67
2018-03-11T02:00:14.191Z,18.63
2018-03-11T02:02:41.719Z,19.23
2018-03-11T02:05:10.015Z,17.50
2018-03-11T02:07:37.620Z,18.03
2018-03-11T02:10:05.306Z,18.30
2018-03-11T02:12:32.810Z,16.90
2018-03-11T02:15:00.415Z,18.57
2018-03-11T02:17:28.079Z,17.13
2018-03-11T02:19:55.646Z,17.13
2018-03-11T02:22:23.204Z,19.47
2018-03-11T02:24:50.736Z,17.20
2018-03-11T02:27:18.282Z,17.03
2018-03-11T02:29:45.818Z,16.07
2018-03-11T02:32:13.339Z,16.30
2018-03-11T02:34:41.631Z,15.47
2018-03-11T02:37:09.175Z,17.43
2018-03-11T02:39:37.455Z,16.10
2018-03-11T02:42:04.971Z,18.10
2018-03-11T02:44:32.494Z,16.40
2018-03-11T02:47:00.778Z,17.60
2018-03-11T02:49:29.189Z,18.20
2018-03-11T02:51:56.719Z,16.30
2018-03-11T02:54:25.018Z,16.63
2018-03-11T02:56:54.287Z,15.73
2018-03-11T02:59:21.852Z,16.13
2018-03-11T03:01:49.385Z,16.27
2018-03-11T03:04:16.892Z,15.57
2018-03-11T03:06:45.188Z,15.20
2018-03-11T03:09:13.462Z,16.83
2018-03-11T03:11:41.820Z,16.77
2018-03-11T03:14:09.431Z,18.30
2018-03-11T03:16:36.944Z,17.67
2018-03-11T03:19:05.983Z,15.60
2018-03-11T03:21:34.333Z,17.13
2018-03-11T03:24:01.859Z,17.50
2018-03-11T03:26:29.371Z,17.63
2018-03-11T03:28:56.904Z,17.00
2018-03-11T03:31:24.435Z,18.27
2018-03-11T03:33:51.955Z,18.47
2018-03-11T03:36:19.515Z,17.90
2018-03-11T03:38:47.033Z,17.77
2018-03-11T03:41:14.800Z,17.63
2018-03-11T03:43:42.937Z,19.80
2018-03-11T03:46:10.462Z,20.93
2018-03-11T03:48:37.983Z,19.20
2018-03-11T03:51:06.300Z,18.43
2018-03-11T03:53:33.821Z,19.73
2018-03-11T03:56:02.100Z,19.53
2018-03-11T03:58:30.417Z,21.03
2018-03-11T04:00:57.929Z,18.57
2018-03-11T04:03:25.446Z,16.37
2018-03-11T04:05:53.019Z,19.33
2018-03-11T04:08:20.524Z,18.90
2018-03-11T04:10:48.036Z,17.30
2018-03-11T04:13:15.682Z,18.03
2018-03-11T04:15:43.984Z,16.70
2018-03-11T04:18:11.499Z,17.10
2018-03-11T04:20:39.034Z,18.77
2018-03-11T04:23:06.563Z,17.70
2018-03-11T04:25:34.102Z,18.97
2018-03-11T04:28:02.426Z,17.77
2018-03-11T04:30:29.949Z,18.13
2018-03-11T04:32:58.245Z,16.67
2018-03-11T04:35:26.574Z,16.63
2018-03-11T04:37:54.090Z,17.50
2018-03-11T04:40:22.367Z,17.90
2018-03-11T04:42:50.675Z,18.80
2018-03-11T04:45:18.199Z,15.77
2018-03-11T04:47:45.703Z,15.47
2018-03-11T04:50:13.266Z,15.23
2018-03-11T04:52:40.836Z,15.83
2018-03-11T04:55:08.342Z,16.40
2018-03-11T04:57:37.374Z,17.33
2018-03-11T05:00:05.648Z,15.20
2018-03-11T05:02:33.927Z,17.30
2018-03-11T05:05:01.474Z,18.47
2018-03-11T05:07:29.755Z,21.63
2018-03-11T05:09:57.257Z,20.77
2018-03-11T05:12:24.799Z,23.23
2018-03-11T05:14:53.163Z,18.80
2018-03-11T05:17:22.202Z,21.73
2018-03-11T05:19:49.776Z,21.47
2018-03-11T05:22:17.290Z,21.97
2018-03-11T05:24:46.316Z,21.77
2018-03-11T05:27:14.631Z,21.67
2018-03-11T05:29:42.166Z,22.13
2018-03-11T05:32:09.990Z,21.80
2018-03-11T05:34:37.535Z,22.67
2018-03-11T05:37:05.821Z,20.13
2018-03-11T05:39:33.362Z,22.97
2018-03-11T05:42:00.917Z,21.83
2018-03-11T05:44:28.884Z,22.43
2018-03-11T05:46:56.372Z,21.73
2018-03-11T05:49:23.930Z,21.50
2018-03-11T05:51:51.439Z,21.07
2018-03-11T05:54:18.948Z,20.87
2018-03-11T05:56:46.478Z,22.77
2018-03-11T05:59:14.033Z,20.17
2018-03-11T06:01:41.650Z,23.23
2018-03-11T06:04:09.203Z,22.43
2018-03-11T06:06:37.483Z,25.60
2018-03-11T06:09:04.996Z,22.53
2018-03-11T06:11:32.519Z,23.93
2018-03-11T06:14:00.034Z,27.17
2018-03-11T06:16:27.625Z,26.37
2018-03-11T06:18:55.944Z,24.70
2018-03-11T06:21:23.459Z,25.80
2018-03-11T06:23:51.742Z,28.90
2018-03-11T06:26:20.766Z,25.73
2018-03-11T06:28:49.622Z,24.07
2018-03-11T06:31:18.724Z,26.37
2018-03-11T06:33:47.034Z,29.70
2018-03-11T06:36:15.334Z,23.17
2018-03-11T06:38:42.900Z,28.03
2018-03-11T06:41:10.502Z,24.73
2018-03-11T06:43:38.494Z,22.80
2018-03-11T06:46:06.015Z,23.27
2018-03-11T06:48:33.595Z,23.33
2018-03-11T06:51:01.104Z,20.63
2018-03-11T06:53:29.388Z,21.20
2018-03-11T06:55:57.689Z,22.83
2018-03-11T06:58:25.209Z,20.87
2018-03-11T07:00:52.725Z,20.40
2018-03-11T07:03:20.261Z,20.63
2018-03-11T07:05:48.549Z,21.00
2018-03-11T07:08:16.830Z,19.27
2018-03-11T07:10:45.306Z,20.60
2018-03-11T07:13:13.587Z,21.03
2018-03-11T07:15:41.864Z,23.33
2018-03-11T07:18:10.267Z,22.57
2018-03-11T07:20:37.787Z,21.13
2018-03-11T07:23:05.322Z,19.80
2018-03-11T07:25:32.855Z,20.57
2018-03-11T07:28:00.394Z,19.17
2018-03-11T07:30:27.920Z,20.20
2018-03-11T07:32:55.460Z,21.37
2018-03-11T07:35:22.982Z,21.97
2018-03-11T07:37:51.263Z,24.63
2018-03-11T07:40:18.819Z,21.27
2018-03-11T07:42:47.127Z,24.70
2018-03-11T07:45:15.410Z,22.97
2018-03-11T07:47:43.730Z,23.10
2018-03-11T07:50:11.236Z,23.37
2018-03-11T07:52:40.255Z,21.43
2018-03-11T07:55:08.553Z,22.90
2018-03-11T07:57:36.103Z,21.43
2018-03-11T08:00:04.387Z,19.40
2018-03-11T08:02:32.710Z,22.47
2018-03-11T08:05:00.223Z,22.13
2018-03-11T08:07:28.519Z,20.10
2018-03-11T08:09:56.100Z,23.03
2018-03-11T08:12:23.618Z,19.80
2018-03-11T08:14:51.142Z,20.97
2018-03-11T08:17:18.680Z,21.10
2018-03-11T08:19:46.275Z,20.47
2018-03-11T08:22:13.795Z,19.37
2018-03-11T08:24:42.110Z,19.77
2018-03-11T08:27:09.683Z,21.57
2018-03-11T08:29:37.237Z,20.20
2018-03-11T08:32:04.774Z,19.60
2018-03-11T08:34:33.073Z,19.13
2018-03-11T08:37:00.662Z,20.83
2018-03-11T08:39:28.231Z,18.93
2018-03-11T08:41:55.772Z,19.13
2018-03-11T08:44:23.718Z,23.43
2018-03-11T08:46:52.040Z,19.93
2018-03-11T08:49:19.598Z,20.77
2018-03-11T08:51:47.128Z,19.80
2018-03-11T08:54:15.451Z,19.77
2018-03-11T08:56:42.981Z,18.90
2018-03-11T08:59:11.282Z,18.90
2018-03-11T09:04:19.839Z,22.20
2018-03-11T09:06:47.371Z,19.53
2018-03-11T09:09:14.887Z,19.67
2018-03-11T09:11:42.429Z,24.53
2018-03-11T09:14:09.954Z,19.47
2018-03-11T09:16:38.235Z,20.97
2018-03-11T09:19:06.541Z,19.83
2018-03-11T09:21:34.196Z,17.80
2018-03-11T09:24:01.732Z,17.23
2018-03-11T09:26:30.039Z,19.47
2018-03-11T09:28:57.615Z,16.00
2018-03-11T09:31:25.157Z,17.57
2018-03-11T09:33:53.465Z,16.43
2018-03-11T09:36:21.008Z,17.70
2018-03-11T09:38:49.286Z,14.60
2018-03-11T09:41:17.592Z,15.53
2018-03-11T09:43:45.107Z,15.47
2018-03-11T09:46:12.624Z,14.93
2018-03-11T09:48:40.175Z,17.83
2018-03-11T09:51:07.718Z,15.17
2018-03-11T09:53:35.267Z,17.80
2018-03-11T09:56:02.799Z,14.50
2018-03-11T09:58:30.316Z,15.67
2018-03-11T10:00:58.608Z,14.70
2018-03-11T10:03:26.146Z,14.93
2018-03-11T10:05:55.187Z,13.77
2018-03-11T10:08:22.762Z,14.50
2018-03-11T10:10:50.319Z,15.07
2018-03-11T10:13:17.848Z,14.20
2018-03-11T10:15:46.137Z,15.67
2018-03-11T10:18:14.463Z,15.40
2018-03-11T10:20:42.005Z,17.37
2018-03-11T10:23:09.606Z,15.80
2018-03-11T10:25:37.143Z,15.83
2018-03-11T10:28:04.670Z,15.27
2018-03-11T10:30:32.966Z,15.37
2018-03-11T10:33:01.287Z,18.20
2018-03-11T10:35:28.806Z,14.63
2018-03-11T10:37:57.106Z,15.70
2018-03-11T10:40:24.646Z,16.60
2018-03-11T10:42:52.936Z,15.13
2018-03-11T10:45:20.478Z,14.07
2018-03-11T10:47:48.790Z,15.10
2018-03-11T10:50:16.331Z,15.23
2018-03-11T10:52:44.726Z,14.63
2018-03-11T10:55:13.032Z,15.00
2018-03-11T10:57:40.578Z,16.17
2018-03-11T11:00:08.918Z,13.47
2018-03-11T11:02:37.411Z,14.30
2018-03-11T11:05:05.743Z,14.10
2018-03-11T11:07:33.248Z,16.07
2018-03-11T11:10:00.836Z,16.00
2018-03-11T11:12:28.381Z,14.97
2018-03-11T11:14:55.875Z,17.33
2018-03-11T11:17:24.195Z,15.97
2018-03-11T11:19:51.714Z,14.23
2018-03-11T11:22:19.987Z,16.17
2018-03-11T11:24:48.423Z,13.37
2018-03-11T11:27:15.965Z,13.57
2018-03-11T11:29:43.476Z,16.67
2018-03-11T11:32:11.211Z,14.87
2018-03-11T11:34:38.730Z,13.83
2018-03-11T11:37:06.263Z,14.50
2018-03-11T11:39:34.923Z,14.97
2018-03-11T11:42:04.366Z,15.13
2018-03-11T11:44:32.719Z,15.20
2018-03-11T11:47:00.682Z,15.60
2018-03-11T11:49:28.325Z,13.67
2018-03-11T11:51:56.609Z,13.63
2018-03-11T11:54:24.929Z,18.03
2018-03-11T11:56:52.460Z,14.67
2018-03-11T11:59:20.741Z,13.67
2018-03-11T12:01:49.061Z,15.77
2018-03-11T12:06:51.464Z,16.17
2018-03-11T12:09:19.025Z,12.37
2018-03-11T12:11:46.546Z,13.60
2018-03-11T12:14:14.867Z,12.00
2018-03-11T12:16:42.387Z,11.80
2018-03-11T12:19:10.682Z,12.37
2018-03-11T12:21:38.217Z,12.60
2018-03-11T12:24:05.750Z,11.90
2018-03-11T12:26:33.438Z,13.57
2018-03-11T12:29:00.986Z,10.90
2018-03-11T12:31:28.510Z,11.07
2018-03-11T12:33:56.035Z,12.27
2018-03-11T12:36:25.091Z,11.47
2018-03-11T12:38:52.650Z,11.30
2018-03-11T12:41:20.227Z,10.67
2018-03-11T12:43:47.762Z,10.43
2018-03-11T12:46:15.373Z,11.77
2018-03-11T12:48:42.894Z,12.07
2018-03-11T12:51:10.458Z,13.07
2018-03-11T12:53:37.980Z,11.07
2018-03-11T12:56:05.506Z,11.87
2018-03-11T12:58:33.031Z,10.57
2018-03-11T13:01:01.348Z,10.57
2018-03-11T13:03:28.863Z,10.40
2018-03-11T13:05:58.183Z,9.63
2018-03-11T13:08:26.466Z,9.73
2018-03-11T13:10:54.751Z,9.80
2018-03-11T13:13:22.843Z,9.97
2018-03-11T13:15:50.379Z,9.70
2018-03-11T13:18:18.670Z,10.80
2018-03-11T13:20:58.700Z,9.77
2018-03-11T13:23:27.011Z,10.27
2018-03-11T13:25:54.531Z,9.60
2018-03-11T13:28:34.024Z,13.97
2018-03-11T13:31:01.581Z,8.90
2018-03-11T13:33:41.091Z,12.20
2018-03-11T13:36:08.608Z,9.30
2018-03-11T13:38:47.983Z,10.13
2018-03-11T13:41:17.003Z,9.97
2018-03-11T13:43:45.278Z,8.93
2018-03-11T13:46:25.561Z,9.33
2018-03-11T13:48:53.847Z,9.20
2018-03-11T13:51:33.447Z,10.43
2018-03-11T13:54:01.754Z,8.97
2018-03-11T13:56:29.263Z,8.53
2018-03-11T13:58:56.914Z,7.77
2018-03-11T14:01:24.418Z,8.50
2018-03-11T14:03:52.696Z,8.33
2018-03-11T14:06:20.235Z,8.00
2018-03-11T14:08:47.747Z,7.70
2018-03-11T14:11:15.270Z,8.17
2018-03-11T14:13:42.793Z,8.00
2018-03-11T14:16:10.311Z,8.50
2018-03-11T14:18:37.912Z,8.33
2018-03-11T14:21:05.443Z,7.40
2018-03-11T14:23:34.477Z,9.17
2018-03-11T14:26:01.984Z,8.40
2018-03-11T14:28:29.590Z,8.63
2018-03-11T14:30:57.902Z,7.50
2018-03-11T14:33:25.491Z,10.43
2018-03-11T14:35:57.639Z,8.13
2018-03-11T14:38:25.986Z,8.80
2018-03-11T14:40:54.259Z,8.20
2018-03-11T14:43:21.847Z,7.80
2018-03-11T14:45:49.358Z,7.37
2018-03-11T14:48:16.870Z,8.20
2018-03-11T14:50:44.415Z,7.80
2018-03-11T14:53:12.288Z,8.10
2018-03-11T14:55:39.799Z,7.90
2018-03-11T14:58:07.334Z,7.53
2018-03-11T15:00:35.606Z,11.17
2018-03-11T15:03:03.882Z,7.60
2018-03-11T15:05:32.200Z,7.90
2018-03-11T15:07:59.702Z,8.27
2018-03-11T15:10:27.206Z,8.67
2018-03-11T15:12:55.507Z,8.00
2018-03-11T15:15:23.029Z,7.53
2018-03-11T15:17:51.309Z,8.37
2018-03-11T15:20:19.858Z,8.10
2018-03-11T15:22:47.405Z,7.40
2018-03-11T15:25:14.908Z,7.10
2018-03-11T15:27:42.439Z,7.33
2018-03-11T15:30:10.051Z,7.33
2018-03-11T15:32:37.638Z,8.90
2018-03-11T15:35:05.946Z,6.97
2018-03-11T15:37:33.535Z,7.37
2018-03-11T15:40:01.078Z,7.50
2018-03-11T15:42:28.613Z,7.00
2018-03-11T15:44:56.901Z,7.00
2018-03-11T15:47:24.407Z,7.43
2018-03-11T15:49:51.976Z,9.80
2018-03-11T15:52:19.495Z,8.50
2018-03-11T15:54:47.015Z,6.47
2018-03-11T15:57:14.539Z,7.50
2018-03-11T15:59:42.047Z,6.30
2018-03-11T16:02:09.627Z,6.87
2018-03-11T16:04:37.207Z,6.33
2018-03-11T16:07:05.503Z,7.20
2018-03-11T16:09:33.026Z,7.47
2018-03-11T16:12:01.368Z,6.73
2018-03-11T16:14:28.929Z,7.17
2018-03-11T16:16:56.434Z,9.63
2018-03-11T16:19:24.048Z,6.70
2018-03-11T16:21:51.567Z,8.07
2018-03-11T16:24:28.382Z,8.20
2018-03-11T16:26:46.657Z,7.47
2018-03-11T16:29:14.190Z,6.67
2018-03-11T16:31:42.859Z,7.37
2018-03-11T16:34:10.398Z,7.37
2018-03-11T16:36:37.911Z,7.03
2018-03-11T16:39:06.199Z,6.87
2018-03-11T16:41:33.943Z,6.40
2018-03-11T16:44:01.562Z,6.33
2018-03-11T16:46:29.079Z,8.23
2018-03-11T16:48:57.384Z,7.70
2018-03-11T16:51:25.018Z,7.13
2018-03-11T16:53:52.536Z,7.33
2018-03-11T16:56:20.063Z,7.67
2018-03-11T16:58:48.336Z,7.53
2018-03-11T17:01:15.932Z,9.27
2018-03-11T17:03:43.492Z,9.30
2018-03-11T17:06:11.058Z,8.73
2018-03-11T17:08:38.567Z,9.60
2018-03-11T17:11:06.883Z,11.77
2018-03-11T17:13:35.158Z,8.07
2018-03-11T17:16:03.435Z,8.97
2018-03-11T17:18:31.748Z,10.73
2018-03-11T17:20:59.287Z,8.20
2018-03-11T17:23:27.658Z,10.67
2018-03-11T17:25:55.259Z,10.07
2018-03-11T17:28:22.779Z,10.47
2018-03-11T17:30:51.062Z,12.57
2018-03-11T17:33:18.764Z,10.57
2018-03-11T17:35:46.288Z,10.30
2018-03-11T17:38:14.559Z,10.87
2018-03-11T17:40:42.110Z,10.07
2018-03-11T17:43:09.614Z,12.33
2018-03-11T17:45:37.923Z,10.87
2018-03-11T17:48:05.490Z,13.87
2018-03-11T17:50:33.002Z,12.37
2018-03-11T17:53:00.530Z,12.13
2018-03-11T17:55:28.081Z,14.50
2018-03-11T17:57:55.599Z,14.13
2018-03-11T18:00:23.911Z,13.13
2018-03-11T18:02:52.223Z,12.77
2018-03-11T18:05:19.755Z,11.63
2018-03-11T18:07:48.036Z,12.40
2018-03-11T18:10:15.654Z,18.33
2018-03-11T18:12:43.215Z,13.50
2018-03-11T18:15:11.486Z,14.87
2018-03-11T18:17:39.051Z,18.00
2018-03-11T18:20:06.586Z,17.87
2018-03-11T18:22:34.131Z,16.07
2018-03-11T18:25:02.477Z,16.00
2018-03-11T18:27:30.008Z,15.47
2018-03-11T18:29:57.538Z,16.70
2018-03-11T18:32:25.880Z,15.10
2018-03-11T18:34:53.479Z,15.00
2018-03-11T18:37:21.011Z,16.03
2018-03-11T18:39:48.558Z,14.90
2018-03-11T18:42:16.086Z,13.33
2018-03-11T18:44:44.370Z,11.50
2018-03-11T18:47:12.675Z,13.37
2018-03-11T18:49:40.220Z,14.60
2018-03-11T18:52:08.502Z,12.07
2018-03-11T18:54:36.822Z,14.07
2018-03-11T18:57:04.372Z,12.07
2018-03-11T18:59:31.899Z,12.37
2018-03-11T19:02:00.393Z,16.90
2018-03-11T19:04:28.697Z,14.50
2018-03-11T19:06:56.236Z,15.07
2018-03-11T19:09:24.542Z,12.80
2018-03-11T19:11:52.076Z,15.50
2018-03-11T19:14:20.388Z,13.10
2018-03-11T19:16:47.931Z,12.17
2018-03-11T19:19:16.246Z,11.63
2018-03-11T19:21:43.786Z,14.47
2018-03-11T19:24:12.142Z,13.90
2018-03-11T19:26:39.748Z,14.17
2018-03-11T19:29:07.305Z,13.10
2018-03-11T19:31:34.838Z,17.47
2018-03-11T19:34:02.350Z,13.70
2018-03-11T19:36:29.970Z,17.80
2018-03-11T19:38:58.303Z,15.90
2018-03-11T19:41:25.822Z,13.70
2018-03-11T19:43:54.358Z,16.57
2018-03-11T19:46:21.906Z,16.30
2018-03-11T19:48:49.429Z,13.40
2018-03-11T19:51:16.968Z,14.20
2018-03-11T19:53:44.563Z,15.00
2018-03-11T19:56:12.902Z,11.97
2018-03-11T19:58:40.456Z,13.20
2018-03-11T20:01:08.014Z,14.17
2018-03-11T20:03:35.554Z,12.90
2018-03-11T20:06:03.839Z,10.67
2018-03-11T20:08:31.525Z,17.40
2018-03-11T20:10:59.108Z,12.40
2018-03-11T20:13:26.813Z,15.63
2018-03-11T20:15:54.376Z,11.27
2018-03-11T20:18:22.669Z,12.93
2018-03-11T20:20:50.372Z,12.00
2018-03-11T20:23:17.958Z,12.60
2018-03-11T20:25:45.484Z,11.63
2018-03-11T20:28:13.786Z,12.23
2018-03-11T20:30:41.377Z,12.80
2018-03-11T20:33:08.887Z,14.13
2018-03-11T20:35:37.233Z,13.00
2018-03-11T20:38:04.836Z,13.37
2018-03-11T20:40:33.244Z,10.93
2018-03-11T20:43:00.779Z,20.37
2018-03-11T20:45:29.110Z,24.63
2018-03-11T20:47:56.638Z,15.20
2018-03-11T20:50:24.218Z,16.20
2018-03-11T20:52:51.767Z,15.53
2018-03-11T20:55:19.979Z,14.40
2018-03-11T20:57:47.504Z,12.90
2018-03-11T21:00:15.927Z,12.43
2018-03-11T21:02:43.595Z,13.40
2018-03-11T21:05:11.979Z,11.80
2018-03-11T21:07:41.092Z,11.00
2018-03-11T21:10:08.636Z,12.77
2018-03-11T21:12:36.168Z,10.87
2018-03-11T21:15:04.476Z,13.03
2018-03-11T21:17:32.001Z,14.03
2018-03-11T21:20:00.300Z,11.83
2018-03-11T21:22:28.639Z,12.03
2018-03-11T21:24:57.204Z,11.77
2018-03-11T21:27:24.746Z,10.67
2018-03-11T21:29:52.440Z,14.57
2018-03-11T21:32:19.949Z,11.37
2018-03-11T21:34:48.243Z,12.63
2018-03-11T21:37:16.589Z,11.03
2018-03-11T21:39:44.317Z,10.30
2018-03-11T21:42:11.841Z,14.70
2018-03-11T21:44:40.148Z,11.63
2018-03-11T21:47:07.721Z,12.50
2018-03-11T21:49:35.326Z,11.63
2018-03-11T21:52:02.870Z,17.00
2018-03-11T21:54:30.381Z,14.70
2018-03-11T21:56:58.697Z,12.60
2018-03-11T21:59:26.368Z,13.60
2018-03-11T22:01:53.874Z,13.10
2018-03-11T22:04:21.398Z,12.47
2018-03-11T22:06:49.122Z,12.40
2018-03-11T22:09:16.738Z,15.40
2018-03-11T22:11:44.363Z,12.03
2018-03-11T22:14:12.724Z,13.10
2018-03-11T22:16:40.244Z,13.07
2018-03-11T22:19:07.815Z,13.03
2018-03-11T22:21:35.478Z,10.77
2018-03-11T22:24:02.990Z,12.97
2018-03-11T22:26:32.036Z,11.87
2018-03-11T22:28:59.589Z,12.43
2018-03-11T22:31:27.227Z,12.20
2018-03-11T22:33:55.506Z,12.20
2018-03-11T22:36:24.546Z,14.30
2018-03-11T22:38:52.057Z,11.60
2018-03-11T22:41:19.676Z,11.47
2018-03-11T22:43:47.246Z,11.40
2018-03-11T22:46:14.807Z,12.57
2018-03-11T22:48:42.327Z,11.63
2018-03-11T22:51:11.395Z,12.40
2018-03-11T22:53:38.911Z,10.87
2018-03-11T22:56:07.322Z,11.20
2018-03-11T22:58:34.856Z,12.97
2018-03-11T23:01:03.133Z,12.23
2018-03-11T23:03:31.406Z,11.37
2018-03-11T23:05:58.930Z,10.70
2018-03-11T23:08:26.455Z,10.63
2018-03-11T23:10:54.738Z,9.63
2018-03-11T23:13:22.344Z,11.47
2018-03-11T23:15:49.984Z,10.23
2018-03-11T23:18:17.551Z,10.90
2018-03-11T23:20:45.116Z,9.90
2018-03-11T23:23:12.629Z,10.27
2018-03-11T23:25:40.130Z,10.67
2018-03-11T23:28:07.823Z,10.20
2018-03-11T23:30:35.390Z,10.47
2018-03-11T23:33:02.916Z,11.23
2018-03-11T23:35:31.267Z,12.23
2018-03-11T23:37:58.801Z,12.07
2018-03-11T23:40:26.322Z,11.93
2018-03-11T23:42:54.680Z,11.87
2018-03-11T23:45:22.960Z,10.67
2018-03-11T23:47:50.490Z,10.83
2018-03-11T23:50:18.463Z,9.60
2018-03-11T23:52:45.970Z,9.07
2018-03-11T23:55:13.486Z,10.40
2018-03-11T23:57:41.014Z,9.37
